createdAt,value
2023-05-12T00:01:18.136Z,7.05
2023-05-12T00:04:19.865Z,6.95
2023-05-12T00:07:21.547Z,6.86
2023-05-12T00:10:23.193Z,6.83
2023-05-12T00:13:25.497Z,6.84
2023-05-12T00:16:27.375Z,6.85
2023-05-12T00:19:29.066Z,6.88
2023-05-12T00:22:31.013Z,6.90
2023-05-12T00:25:32.666Z,6.90
2023-05-12T00:28:34.559Z,6.91
2023-05-12T00:31:36.315Z,6.86
2023-05-12T00:34:38.202Z,6.83
2023-05-12T00:37:39.888Z,6.79
2023-05-12T00:40:41.463Z,6.76
2023-05-12T00:43:43.059Z,6.75
2023-05-12T00:46:44.721Z,6.76
2023-05-12T00:49:46.665Z,6.75
2023-05-12T00:52:49.254Z,6.76
2023-05-12T00:55:50.991Z,6.75
2023-05-12T00:58:52.630Z,6.75
2023-05-12T01:01:54.094Z,6.73
2023-05-12T01:04:55.740Z,6.71
2023-05-12T01:07:59.897Z,6.68
2023-05-12T01:11:01.438Z,6.65
2023-05-12T01:14:03.042Z,6.64
2023-05-12T01:17:10.608Z,6.67
2023-05-12T01:20:13.409Z,6.72
2023-05-12T01:23:18.877Z,6.72
2023-05-12T01:26:20.627Z,6.70
2023-05-12T01:29:22.949Z,6.67
2023-05-12T01:32:24.823Z,6.63
2023-05-12T01:35:26.654Z,6.61
2023-05-12T01:38:28.257Z,6.58
2023-05-12T01:41:29.804Z,6.57
2023-05-12T01:44:31.548Z,6.56
2023-05-12T01:47:33.739Z,6.52
2023-05-12T01:50:35.344Z,6.48
2023-05-12T01:53:37.081Z,6.44
2023-05-12T01:56:38.604Z,6.41
2023-05-12T01:59:40.219Z,6.37
2023-05-12T02:02:43.042Z,6.31
2023-05-12T02:05:45.126Z,6.26
2023-05-12T02:08:46.830Z,6.19
2023-05-12T02:11:48.843Z,6.13
2023-05-12T02:14:50.436Z,6.07
2023-05-12T02:17:52.224Z,5.97
2023-05-12T02:20:53.816Z,5.92
2023-05-12T02:23:55.382Z,5.86
2023-05-12T02:26:56.968Z,5.79
2023-05-12T02:29:58.547Z,5.70
2023-05-12T02:33:00.277Z,5.63
2023-05-12T02:36:01.801Z,5.58
2023-05-12T02:39:03.485Z,5.51
2023-05-12T02:42:05.618Z,5.45
2023-05-12T02:45:07.787Z,5.43
2023-05-12T02:48:09.697Z,5.38
2023-05-12T02:51:11.385Z,5.32
2023-05-12T02:54:13.013Z,5.26
2023-05-12T02:57:14.593Z,5.23
2023-05-12T03:00:16.226Z,5.20
2023-05-12T03:03:17.910Z,5.14
2023-05-12T03:06:20.777Z,5.12
2023-05-12T03:09:25.381Z,5.12
2023-05-12T03:12:27.004Z,5.14
2023-05-12T03:15:28.709Z,5.14
2023-05-12T03:18:30.251Z,5.17
2023-05-12T03:21:31.897Z,5.21
2023-05-12T03:24:34.413Z,5.25
2023-05-12T03:27:36.044Z,5.33
2023-05-12T03:30:37.527Z,5.42
2023-05-12T03:33:39.082Z,5.52
2023-05-12T03:36:40.541Z,5.63
2023-05-12T03:39:42.069Z,5.73
2023-05-12T03:42:44.000Z,5.89
2023-05-12T03:45:45.506Z,6.10
2023-05-12T03:48:47.311Z,6.34
2023-05-12T03:51:49.005Z,6.62
2023-05-12T03:54:50.663Z,6.89
2023-05-12T03:57:52.184Z,7.10
2023-05-12T04:00:56.908Z,7.30
2023-05-12T04:03:58.560Z,7.53
2023-05-12T04:07:00.250Z,7.71
2023-05-12T04:10:01.788Z,7.86
2023-05-12T04:13:03.724Z,7.91
2023-05-12T04:16:05.691Z,8.05
2023-05-12T04:19:07.375Z,8.04
2023-05-12T04:22:09.173Z,8.01
2023-05-12T04:25:10.729Z,7.98
2023-05-12T04:28:12.425Z,7.99
2023-05-12T04:31:13.989Z,7.97
2023-05-12T04:34:15.559Z,7.93
2023-05-12T04:37:20.135Z,7.97
2023-05-12T04:40:21.760Z,8.35
2023-05-12T04:46:28.194Z,9.04
2023-05-12T04:49:29.871Z,9.25
2023-05-12T04:52:31.911Z,9.43
2023-05-12T04:55:33.461Z,9.34
2023-05-12T04:58:35.085Z,9.45
2023-05-12T05:01:36.698Z,10.08
2023-05-12T05:04:38.428Z,10.16
2023-05-12T05:07:40.103Z,9.98
2023-05-12T05:10:41.776Z,10.10
2023-05-12T05:13:43.315Z,9.82
2023-05-12T05:16:45.364Z,9.56
2023-05-12T05:19:57.385Z,9.79
2023-05-12T05:23:00.974Z,10.50
2023-05-12T05:26:02.580Z,11.15
2023-05-12T05:29:04.809Z,11.66
2023-05-12T05:32:06.552Z,11.33
2023-05-12T05:35:08.693Z,11.05
2023-05-12T05:38:10.700Z,11.32
2023-05-12T05:41:12.521Z,11.69
2023-05-12T05:44:14.516Z,12.14
2023-05-12T05:47:16.452Z,12.89
2023-05-12T05:50:18.104Z,13.45
2023-05-12T05:53:20.705Z,14.00
2023-05-12T05:56:25.412Z,14.58
2023-05-12T05:59:27.326Z,14.97
2023-05-12T06:02:29.195Z,15.29
2023-05-12T06:05:30.945Z,15.38
2023-05-12T06:08:33.178Z,15.64
2023-05-12T06:11:34.898Z,16.05
2023-05-12T06:14:36.534Z,16.47
2023-05-12T06:17:38.506Z,16.53
2023-05-12T06:20:40.177Z,16.58
2023-05-12T06:23:41.905Z,16.78
2023-05-12T06:26:43.852Z,17.14
2023-05-12T06:29:45.378Z,17.09
2023-05-12T06:32:47.100Z,17.23
2023-05-12T06:35:49.083Z,17.18
2023-05-12T06:38:50.706Z,17.53
2023-05-12T06:41:52.362Z,17.51
2023-05-12T06:44:53.939Z,17.17
2023-05-12T06:47:55.545Z,16.88
2023-05-12T06:50:57.147Z,16.37
2023-05-12T06:53:59.073Z,16.25
2023-05-12T06:57:00.775Z,16.41
2023-05-12T07:00:02.927Z,16.48
2023-05-12T07:03:04.757Z,16.79
2023-05-12T07:06:06.652Z,16.72
2023-05-12T07:09:08.204Z,17.02
2023-05-12T07:12:09.815Z,17.53
2023-05-12T07:15:11.696Z,17.75
2023-05-12T07:18:13.336Z,17.86
2023-05-12T07:21:14.961Z,17.91
2023-05-12T07:24:16.729Z,18.04
2023-05-12T07:27:18.370Z,17.90
2023-05-12T07:30:20.141Z,17.94
2023-05-12T07:33:22.193Z,18.22
2023-05-12T07:36:23.780Z,18.62
2023-05-12T07:39:26.413Z,18.97
2023-05-12T07:42:28.116Z,19.40
2023-05-12T07:45:30.276Z,19.82
2023-05-12T07:48:31.877Z,19.31
2023-05-12T07:51:33.381Z,18.89
2023-05-12T07:54:34.932Z,19.00
2023-05-12T07:57:36.456Z,19.20
2023-05-12T08:00:38.538Z,19.70
2023-05-12T08:03:40.590Z,19.88
2023-05-12T08:06:42.221Z,19.84
2023-05-12T08:09:43.884Z,19.91
2023-05-12T08:12:46.254Z,20.12
2023-05-12T08:15:49.636Z,20.09
2023-05-12T08:18:52.267Z,19.82
2023-05-12T08:21:53.993Z,19.85
2023-05-12T08:24:55.589Z,20.08
2023-05-12T08:27:57.221Z,20.36
2023-05-12T08:30:59.019Z,20.72
2023-05-12T08:34:09.783Z,20.70
2023-05-12T08:37:13.400Z,21.17
2023-05-12T08:40:21.580Z,21.26
2023-05-12T08:43:25.602Z,21.14
2023-05-12T08:46:27.342Z,21.08
2023-05-12T08:49:31.959Z,21.25
2023-05-12T08:52:35.083Z,21.19
2023-05-12T08:55:37.186Z,21.41
2023-05-12T08:58:42.220Z,21.72
2023-05-12T09:01:44.344Z,22.12
2023-05-12T09:04:46.066Z,22.64
2023-05-12T09:07:49.026Z,22.82
2023-05-12T09:10:50.816Z,22.84
2023-05-12T09:13:57.962Z,22.75
2023-05-12T09:17:04.876Z,22.58
2023-05-12T09:20:07.780Z,22.76
2023-05-12T09:23:16.189Z,23.73
2023-05-12T09:26:17.843Z,23.71
2023-05-12T09:29:30.825Z,23.51
2023-05-12T09:32:34.485Z,23.35
2023-05-12T09:35:45.924Z,23.14
2023-05-12T09:38:58.943Z,23.63
2023-05-12T09:42:00.755Z,24.20
2023-05-12T09:45:06.872Z,24.59
2023-05-12T09:48:12.843Z,24.35
2023-05-12T09:51:18.238Z,23.70
2023-05-12T09:54:27.387Z,23.83
2023-05-12T09:57:29.055Z,23.70
2023-05-12T10:00:43.420Z,23.40
2023-05-12T10:03:51.113Z,23.81
2023-05-12T10:06:52.957Z,24.47
2023-05-12T10:09:55.867Z,24.40
2023-05-12T10:12:57.909Z,23.89
2023-05-12T10:16:00.111Z,24.40
2023-05-12T10:19:03.556Z,24.65
2023-05-12T10:22:05.980Z,24.05
2023-05-12T10:25:08.892Z,23.19
2023-05-12T10:28:10.914Z,22.75
2023-05-12T10:31:13.550Z,22.97
2023-05-12T10:34:18.425Z,22.44
2023-05-12T10:37:22.862Z,22.97
2023-05-12T10:40:24.827Z,23.61
2023-05-12T10:43:29.138Z,23.26
2023-05-12T10:46:31.104Z,22.16
2023-05-12T10:49:39.768Z,21.47
2023-05-12T10:52:52.766Z,21.64
2023-05-12T10:55:56.019Z,22.93
2023-05-12T10:59:21.515Z,24.16
2023-05-12T11:02:27.030Z,24.40
2023-05-12T11:05:34.352Z,24.06
2023-05-12T11:08:37.857Z,23.74
2023-05-12T11:11:40.557Z,23.22
2023-05-12T11:14:44.241Z,22.87
2023-05-12T11:17:46.432Z,22.67
2023-05-12T11:20:48.722Z,22.35
2023-05-12T11:23:50.969Z,21.44
2023-05-12T11:26:52.489Z,20.91
2023-05-12T11:30:02.128Z,20.56
2023-05-12T11:33:03.864Z,20.76
2023-05-12T11:36:05.970Z,21.89
2023-05-12T11:39:07.704Z,22.99
2023-05-12T11:42:13.615Z,22.83
2023-05-12T11:45:23.609Z,22.41
2023-05-12T11:48:33.372Z,23.68
2023-05-12T11:51:34.993Z,23.66
2023-05-12T11:54:36.683Z,22.50
2023-05-12T11:57:38.462Z,22.62
2023-05-12T12:00:40.333Z,23.72
2023-05-12T12:03:49.964Z,24.50
2023-05-12T12:06:51.716Z,24.85
2023-05-12T12:09:53.255Z,25.53
2023-05-12T12:12:54.848Z,25.60
2023-05-12T12:15:56.432Z,25.61
2023-05-12T12:18:58.491Z,26.18
2023-05-12T12:22:00.162Z,26.28
2023-05-12T12:25:03.212Z,26.02
2023-05-12T12:28:05.156Z,25.95
2023-05-12T12:31:06.802Z,26.14
2023-05-12T12:34:08.340Z,25.63
2023-05-12T12:37:10.052Z,24.60
2023-05-12T12:40:11.833Z,24.57
2023-05-12T12:43:13.413Z,25.48
2023-05-12T12:46:15.009Z,25.60
2023-05-12T12:49:16.575Z,25.02
2023-05-12T12:52:18.118Z,24.07
2023-05-12T12:55:19.963Z,24.03
2023-05-12T12:58:23.274Z,24.16
2023-05-12T13:01:26.010Z,23.91
2023-05-12T13:04:28.873Z,23.51
2023-05-12T13:07:31.763Z,22.22
2023-05-12T13:10:33.443Z,21.59
2023-05-12T13:13:36.325Z,21.03
2023-05-12T13:16:37.956Z,20.57
2023-05-12T13:19:39.498Z,20.26
2023-05-12T13:22:44.644Z,20.87
2023-05-12T13:25:46.228Z,21.55
2023-05-12T13:28:47.941Z,22.49
2023-05-12T13:31:49.594Z,22.42
2023-05-12T13:34:51.217Z,23.02
2023-05-12T13:37:52.857Z,23.72
2023-05-12T13:40:54.667Z,23.88
2023-05-12T13:43:56.338Z,22.26
2023-05-12T13:46:57.976Z,21.90
2023-05-12T13:49:59.561Z,22.44
2023-05-12T13:53:01.085Z,22.90
2023-05-12T13:56:02.823Z,23.04
2023-05-12T13:59:04.539Z,23.18
2023-05-12T14:02:06.273Z,23.69
2023-05-12T14:05:08.537Z,24.37
2023-05-12T14:08:10.212Z,25.04
2023-05-12T14:11:11.794Z,24.52
2023-05-12T14:14:13.358Z,23.66
2023-05-12T14:17:15.528Z,23.43
2023-05-12T14:20:17.122Z,23.11
2023-05-12T14:23:19.163Z,22.49
2023-05-12T14:26:20.852Z,22.24
2023-05-12T14:29:22.449Z,22.88
2023-05-12T14:32:24.017Z,23.62
2023-05-12T14:35:25.660Z,23.77
2023-05-12T14:38:27.324Z,23.70
2023-05-12T14:41:28.900Z,23.33
2023-05-12T14:44:30.509Z,23.52
2023-05-12T14:47:32.125Z,22.29
2023-05-12T14:50:33.850Z,21.52
2023-05-12T14:53:35.384Z,21.53
2023-05-12T14:56:37.078Z,21.81
2023-05-12T14:59:38.724Z,21.85
2023-05-12T15:02:41.252Z,21.50
2023-05-12T15:05:59.656Z,20.84
2023-05-12T15:09:04.570Z,19.94
2023-05-12T15:12:06.490Z,19.52
2023-05-12T15:15:08.878Z,19.16
2023-05-12T15:18:10.733Z,19.01
2023-05-12T15:21:12.472Z,18.77
2023-05-12T15:24:14.094Z,19.14
2023-05-12T15:27:15.664Z,19.93
2023-05-12T15:30:17.470Z,20.65
2023-05-12T15:33:19.862Z,20.95
2023-05-12T15:36:21.454Z,20.99
2023-05-12T15:39:23.562Z,20.71
2023-05-12T15:42:32.317Z,20.42
2023-05-12T15:45:34.525Z,20.37
2023-05-12T15:48:36.115Z,20.20
2023-05-12T15:51:37.911Z,20.13
2023-05-12T15:54:39.569Z,19.92
2023-05-12T15:57:41.372Z,19.77
2023-05-12T16:00:43.040Z,19.38
2023-05-12T16:03:44.882Z,19.09
2023-05-12T16:06:46.495Z,18.84
2023-05-12T16:09:48.143Z,18.62
2023-05-12T16:12:49.719Z,18.29
2023-05-12T16:15:51.356Z,18.06
2023-05-12T16:18:52.991Z,17.81
2023-05-12T16:21:54.677Z,17.58
2023-05-12T16:24:56.196Z,17.54
2023-05-12T16:27:57.895Z,17.59
2023-05-12T16:31:02.149Z,17.52
2023-05-12T16:34:03.837Z,17.60
2023-05-12T16:37:05.349Z,17.47
2023-05-12T16:40:07.856Z,17.31
2023-05-12T16:43:09.920Z,17.22
2023-05-12T16:46:11.485Z,17.11
2023-05-12T16:49:13.058Z,16.98
2023-05-12T16:52:14.653Z,16.91
2023-05-12T16:55:16.358Z,16.83
2023-05-12T16:58:17.857Z,17.06
2023-05-12T17:01:19.691Z,17.84
2023-05-12T17:04:21.288Z,18.74
2023-05-12T17:07:22.850Z,19.49
2023-05-12T17:10:24.573Z,19.91
2023-05-12T17:13:26.348Z,19.89
2023-05-12T17:16:28.056Z,19.22
2023-05-12T17:19:29.811Z,18.26
2023-05-12T17:22:31.534Z,17.66
2023-05-12T17:25:33.092Z,17.16
2023-05-12T17:28:34.784Z,16.80
2023-05-12T17:31:37.452Z,16.47
2023-05-12T17:34:39.120Z,16.18
2023-05-12T17:37:40.784Z,15.94
2023-05-12T17:40:42.418Z,15.71
2023-05-12T17:43:44.001Z,15.53
2023-05-12T17:46:45.551Z,15.40
2023-05-12T17:49:47.164Z,15.23
2023-05-12T17:52:48.724Z,15.06
2023-05-12T17:55:50.575Z,14.89
2023-05-12T17:58:52.237Z,14.77
2023-05-12T18:01:53.839Z,14.64
2023-05-12T18:04:55.501Z,14.50
2023-05-12T18:07:57.099Z,14.37
2023-05-12T18:10:58.968Z,14.24
2023-05-12T18:14:01.439Z,14.13
2023-05-12T18:17:03.200Z,14.02
2023-05-12T18:20:05.895Z,13.91
2023-05-12T18:23:07.515Z,13.79
2023-05-12T18:26:09.089Z,13.68
2023-05-12T18:29:10.659Z,13.58
2023-05-12T18:32:12.340Z,13.46
2023-05-12T18:35:14.073Z,13.34
2023-05-12T18:38:15.701Z,13.24
2023-05-12T18:41:17.195Z,13.18
2023-05-12T18:44:18.869Z,13.10
2023-05-12T18:47:20.480Z,13.02
2023-05-12T18:50:22.152Z,12.94
2023-05-12T18:53:23.842Z,12.86
2023-05-12T18:56:25.448Z,12.79
2023-05-12T18:59:27.178Z,12.73
2023-05-12T19:02:28.842Z,12.67
2023-05-12T19:05:30.968Z,12.61
2023-05-12T19:08:32.566Z,12.53
2023-05-12T19:11:34.194Z,12.46
2023-05-12T19:14:36.273Z,12.39
2023-05-12T19:17:37.909Z,12.31
2023-05-12T19:20:39.639Z,12.26
2023-05-12T19:23:41.731Z,12.24
2023-05-12T19:26:43.424Z,12.23
2023-05-12T19:29:45.028Z,12.22
2023-05-12T19:32:46.980Z,12.19
2023-05-12T19:35:48.667Z,12.12
2023-05-12T19:38:50.284Z,12.01
2023-05-12T19:41:51.887Z,11.95
2023-05-12T19:44:53.438Z,11.92
2023-05-12T19:47:56.157Z,11.90
2023-05-12T19:50:57.767Z,11.86
2023-05-12T19:53:59.365Z,11.80
2023-05-12T19:57:00.974Z,11.80
2023-05-12T20:00:02.760Z,11.80
2023-05-12T20:03:05.676Z,11.73
2023-05-12T20:06:07.431Z,11.63
2023-05-12T20:09:09.612Z,11.51
2023-05-12T20:12:11.230Z,11.43
2023-05-12T20:15:12.863Z,11.37
2023-05-12T20:18:14.845Z,11.33
2023-05-12T20:21:16.947Z,11.24
2023-05-12T20:24:18.621Z,11.15
2023-05-12T20:27:20.271Z,11.12
2023-05-12T20:30:25.016Z,11.14
2023-05-12T20:33:26.627Z,11.18
2023-05-12T20:36:28.270Z,11.15
2023-05-12T20:39:29.843Z,11.08
2023-05-12T20:42:32.003Z,10.99
2023-05-12T20:45:33.641Z,10.89
2023-05-12T20:48:35.324Z,10.81
2023-05-12T20:51:36.933Z,10.78
2023-05-12T20:54:38.601Z,10.79
2023-05-12T20:57:40.278Z,10.79
2023-05-12T21:00:42.033Z,10.79
2023-05-12T21:03:43.768Z,10.78
2023-05-12T21:06:45.392Z,10.74
2023-05-12T21:09:47.380Z,10.72
2023-05-12T21:12:49.051Z,10.71
2023-05-12T21:15:50.845Z,10.69
2023-05-12T21:18:52.447Z,10.68
2023-05-12T21:21:54.137Z,10.66
2023-05-12T21:24:55.777Z,10.63
2023-05-12T21:27:57.395Z,10.56
2023-05-12T21:30:59.075Z,10.47
2023-05-12T21:34:00.680Z,10.39
2023-05-12T21:37:02.326Z,10.32
2023-05-12T21:40:04.455Z,10.25
2023-05-12T21:43:06.005Z,10.19
2023-05-12T21:46:07.656Z,10.14
2023-05-12T21:49:09.712Z,10.06
2023-05-12T21:52:12.018Z,9.98
2023-05-12T21:55:13.601Z,9.89
2023-05-12T21:58:15.235Z,9.80
2023-05-12T22:01:18.071Z,9.71
2023-05-12T22:04:19.719Z,9.63
2023-05-12T22:07:21.809Z,9.54
2023-05-12T22:10:26.709Z,9.44
2023-05-12T22:13:28.347Z,9.30
2023-05-12T22:16:38.531Z,9.16
2023-05-12T22:19:42.748Z,9.05
2023-05-12T22:22:44.362Z,8.96
2023-05-12T22:25:45.929Z,8.87
2023-05-12T22:28:47.540Z,8.74
2023-05-12T22:31:49.341Z,8.64
2023-05-12T22:34:54.628Z,8.55
2023-05-12T22:37:56.209Z,8.47
2023-05-12T22:40:57.894Z,8.40
2023-05-12T22:43:59.526Z,8.33
2023-05-12T22:47:01.187Z,8.29
2023-05-12T22:50:03.308Z,8.23
2023-05-12T22:53:05.064Z,8.16
2023-05-12T22:56:07.407Z,8.08
2023-05-12T22:59:09.063Z,8.00
2023-05-12T23:02:10.788Z,7.93
2023-05-12T23:05:12.458Z,7.88
2023-05-12T23:08:14.218Z,7.83
2023-05-12T23:11:15.701Z,7.77
2023-05-12T23:14:17.334Z,7.70
2023-05-12T23:17:18.841Z,7.64
2023-05-12T23:20:20.632Z,7.56
2023-05-12T23:23:22.408Z,7.47
2023-05-12T23:26:23.862Z,7.37
2023-05-12T23:29:25.388Z,7.28
2023-05-12T23:32:27.038Z,7.18
2023-05-12T23:35:28.736Z,7.12
2023-05-12T23:38:30.325Z,7.04
2023-05-12T23:41:31.962Z,6.97
2023-05-12T23:44:33.455Z,6.89
2023-05-12T23:47:35.229Z,6.80
2023-05-12T23:50:36.874Z,6.68
2023-05-12T23:53:38.479Z,6.58
2023-05-12T23:56:39.937Z,6.50
2023-05-12T23:59:41.644Z,6.44
